Time;durP1;ratioP1;P1;durP2;ratioP2;P2;SDS_P1;SDS_P2;PMS_P1;PMS_P2;Temp;Humidity;BMP_temperature;BMP_pressure;BME280_temperature;BME280_humidity;BME280_pressure;Samples;Min_cycle;Max_cycle;Signal;HPM_P1;HPM_P2
2021/06/20 00:01:11;;;;;;;3.28;3.08;;;25.40;99.90;;;;;;5046610;28;20274;-84
2021/06/20 00:03:38;;;;;;;4.40;3.10;;;25.40;99.90;;;;;;5036927;28;20251;-85
2021/06/20 00:06:11;;;;;;;3.95;2.60;;;25.50;99.90;;;;;;5036976;28;20196;-84
2021/06/20 00:08:38;;;;;;;3.25;2.90;;;25.30;99.90;;;;;;5040764;28;20208;-84
2021/06/20 00:11:05;;;;;;;4.30;3.45;;;25.20;99.90;;;;;;5038492;28;20310;-84
2021/06/20 00:13:32;;;;;;;3.15;2.85;;;25.10;99.90;;;;;;5053987;28;20245;-84
2021/06/20 00:16:00;;;;;;;2.88;2.67;;;25.20;99.90;;;;;;5036802;28;20584;-84
2021/06/20 00:18:28;;;;;;;3.03;2.75;;;25.30;99.90;;;;;;5036171;28;20208;-84
2021/06/20 00:20:55;;;;;;;3.83;3.13;;;25.30;99.90;;;;;;5036266;28;20270;-84
2021/06/20 00:23:22;;;;;;;3.70;2.47;;;25.20;99.90;;;;;;5018779;28;20228;-84
2021/06/20 00:25:50;;;;;;;4.30;3.35;;;25.30;99.90;;;;;;5056104;28;20199;-84
2021/06/20 00:28:17;;;;;;;3.35;3.05;;;25.20;99.90;;;;;;5041542;28;20204;-84
2021/06/20 00:30:44;;;;;;;4.25;2.70;;;25.30;99.90;;;;;;5060656;28;20258;-84
2021/06/20 00:33:12;;;;;;;4.85;2.70;;;24.80;99.90;;;;;;5042340;28;20199;-84
2021/06/20 00:35:41;;;;;;;3.83;2.47;;;24.60;99.90;;;;;;5059580;28;20204;-84
2021/06/20 00:38:10;;;;;;;2.28;2.08;;;24.50;99.90;;;;;;5073643;28;20207;-84
2021/06/20 00:40:38;;;;;;;4.00;3.28;;;24.50;99.90;;;;;;5071466;28;20254;-85
2021/06/20 00:43:07;;;;;;;5.13;2.70;;;24.60;99.90;;;;;;5052353;28;20191;-85
2021/06/20 00:45:35;;;;;;;2.72;2.53;;;24.40;99.90;;;;;;5052016;28;20211;-84
2021/06/20 00:48:08;;;;;;;2.75;2.55;;;24.30;99.90;;;;;;5051340;28;20198;-85
2021/06/20 00:50:38;;;;;;;3.13;2.55;;;24.30;99.90;;;;;;5052669;28;20212;-85
2021/06/20 00:53:06;;;;;;;3.70;2.35;;;24.30;99.90;;;;;;5049876;28;20211;-84
2021/06/20 00:55:37;;;;;;;2.70;2.50;;;24.40;99.90;;;;;;5061944;28;20201;-85
2021/06/20 00:58:06;;;;;;;2.78;2.20;;;24.50;99.90;;;;;;5062639;28;20261;-84
2021/06/20 01:00:35;;;;;;;2.97;2.47;;;24.60;99.90;;;;;;5050433;28;20231;-85
2021/06/20 01:03:02;;;;;;;2.95;2.35;;;24.70;99.90;;;;;;5055270;28;20200;-85
2021/06/20 01:05:30;;;;;;;4.97;3.38;;;24.70;99.90;;;;;;5035962;28;20191;-85
2021/06/20 01:07:58;;;;;;;3.20;2.35;;;24.70;99.90;;;;;;5041083;28;20206;-85
2021/06/20 01:10:29;;;;;;;3.67;2.47;;;24.80;99.90;;;;;;5044788;28;20196;-85
2021/06/20 01:12:57;;;;;;;2.95;2.10;;;24.80;99.90;;;;;;5043341;28;20555;-85
2021/06/20 01:15:24;;;;;;;3.28;2.97;;;24.80;99.90;;;;;;5025643;28;20231;-85
2021/06/20 01:17:51;;;;;;;3.67;3.20;;;24.70;99.90;;;;;;5042945;28;20249;-85
2021/06/20 01:20:20;;;;;;;2.90;2.60;;;24.80;99.90;;;;;;5043821;28;20273;-84
2021/06/20 01:22:50;;;;;;;4.32;2.80;;;24.90;99.90;;;;;;5043392;28;20262;-84
2021/06/20 01:25:20;;;;;;;3.90;2.70;;;25.10;99.90;;;;;;5044222;28;20227;-85
2021/06/20 01:27:51;;;;;;;4.05;2.72;;;24.90;99.90;;;;;;5026016;28;20253;-84
2021/06/20 01:30:22;;;;;;;5.13;2.58;;;24.90;99.90;;;;;;5079217;28;20191;-83
2021/06/20 01:32:50;;;;;;;3.13;2.88;;;24.80;99.90;;;;;;5077765;28;20199;-85
2021/06/20 01:35:18;;;;;;;5.10;3.00;;;24.70;99.90;;;;;;5058197;28;20188;-84
2021/06/20 01:37:45;;;;;;;4.53;3.35;;;24.60;99.90;;;;;;5054607;28;20211;-84
2021/06/20 01:40:17;;;;;;;3.38;2.30;;;24.50;99.90;;;;;;5037659;28;20212;-81
2021/06/20 01:42:45;;;;;;;8.13;2.97;;;24.50;99.90;;;;;;5038216;28;20207;-84
2021/06/20 01:45:15;;;;;;;4.93;3.00;;;24.20;99.90;;;;;;5037783;28;20626;-84
2021/06/20 01:47:42;;;;;;;3.58;2.90;;;24.30;99.90;;;;;;5040376;28;20196;-84
2021/06/20 01:50:13;;;;;;;5.88;3.55;;;24.50;99.90;;;;;;5025661;28;20207;-83
2021/06/20 01:52:41;;;;;;;9.30;3.28;;;24.60;99.90;;;;;;5039144;28;20224;-84
2021/06/20 01:55:10;;;;;;;3.30;3.00;;;24.60;99.90;;;;;;5040211;28;20443;-84
2021/06/20 01:57:41;;;;;;;5.35;3.60;;;24.60;99.90;;;;;;5040129;28;20220;-83
2021/06/20 02:00:11;;;;;;;2.92;2.63;;;24.50;99.90;;;;;;5037530;28;20196;-83
2021/06/20 02:02:42;;;;;;;6.68;3.40;;;24.50;99.90;;;;;;5020800;28;20250;-83
2021/06/20 02:05:11;;;;;;;3.30;3.00;;;24.70;99.90;;;;;;5038961;28;20230;-84
2021/06/20 02:07:38;;;;;;;4.45;3.20;;;24.80;99.90;;;;;;5053828;28;20639;-82
2021/06/20 02:10:08;;;;;;;3.83;3.20;;;24.70;99.90;;;;;;5041225;28;20258;-82
2021/06/20 02:12:36;;;;;;;3.60;3.10;;;24.70;99.90;;;;;;5043885;28;20220;-82
2021/06/20 02:15:07;;;;;;;3.22;3.03;;;24.70;99.90;;;;;;5039897;28;20200;-82
2021/06/20 02:17:36;;;;;;;3.40;2.97;;;24.70;99.90;;;;;;5025772;28;20234;-82
2021/06/20 02:20:07;;;;;;;5.40;3.35;;;24.70;99.90;;;;;;5038427;28;20341;-82
2021/06/20 02:22:34;;;;;;;6.10;3.15;;;24.70;99.90;;;;;;5037910;28;20299;-82
2021/06/20 02:25:02;;;;;;;4.03;3.65;;;24.60;99.90;;;;;;5036974;28;20543;-81
2021/06/20 02:27:29;;;;;;;5.90;3.50;;;24.60;99.90;;;;;;5049753;28;20192;-82
2021/06/20 02:29:57;;;;;;;5.65;4.20;;;24.50;99.90;;;;;;5033632;28;20227;-84
2021/06/20 02:32:26;;;;;;;4.15;3.85;;;24.50;99.90;;;;;;5055754;28;20227;-82
2021/06/20 02:34:54;;;;;;;11.32;3.60;;;24.50;99.90;;;;;;5055410;28;20572;-82
2021/06/20 02:37:22;;;;;;;4.32;3.60;;;24.30;99.90;;;;;;5048386;28;20227;-82
2021/06/20 02:39:50;;;;;;;8.00;4.32;;;24.10;99.90;;;;;;5041282;28;20204;-83
2021/06/20 02:42:18;;;;;;;11.45;4.90;;;23.80;99.90;;;;;;5098533;22;20602;-80
2021/06/20 02:44:46;;;;;;;7.07;4.45;;;23.30;99.90;;;;;;5080952;28;20270;-84
2021/06/20 02:47:14;;;;;;;4.63;3.25;;;22.10;99.90;;;;;;5082686;28;20413;-84
2021/06/20 02:49:42;;;;;;;6.82;4.00;;;21.60;99.90;;;;;;5083070;28;20205;-82
2021/06/20 02:52:11;;;;;;;6.65;3.60;;;21.80;99.90;;;;;;5100412;28;20840;-83
2021/06/20 02:54:49;;;;;;;8.35;3.47;;;21.40;99.90;;;;;;5102045;28;20198;-83
2021/06/20 02:57:16;;;;;;;5.90;3.20;;;21.20;99.90;;;;;;5101772;28;20217;-79
2021/06/20 02:59:43;;;;;;;4.75;2.05;;;20.70;99.90;;;;;;5090405;28;20202;-83
2021/06/20 03:02:10;;;;;;;4.72;2.78;;;20.50;99.90;;;;;;5077921;28;20210;-85
2021/06/20 03:04:37;;;;;;;4.18;1.80;;;20.40;99.90;;;;;;5075353;28;20209;-84
2021/06/20 03:07:07;;;;;;;4.97;1.80;;;20.40;99.90;;;;;;5088072;28;20665;-84
2021/06/20 03:09:35;;;;;;;4.30;2.10;;;20.30;99.90;;;;;;5080655;28;20236;-83
2021/06/20 03:12:05;;;;;;;4.90;1.95;;;20.40;99.90;;;;;;5098404;28;20576;-84
2021/06/20 03:14:34;;;;;;;2.75;1.98;;;20.70;99.90;;;;;;5098857;28;20229;-84
2021/06/20 03:17:02;;;;;;;10.27;2.50;;;20.70;99.90;;;;;;5099313;28;20289;-84
2021/06/20 03:19:29;;;;;;;6.70;2.00;;;20.70;99.90;;;;;;5097075;28;20202;-84
2021/06/20 03:22:00;;;;;;;15.30;2.50;;;20.60;99.90;;;;;;5088179;28;20237;-85
2021/06/20 03:24:30;;;;;;;8.80;2.45;;;20.90;99.90;;;;;;5076569;28;20256;-85
2021/06/20 03:26:59;;;;;;;6.07;2.47;;;21.10;99.90;;;;;;5077204;28;20199;-85
2021/06/20 03:29:26;;;;;;;13.60;4.38;;;21.50;99.90;;;;;;5076928;28;20213;-87
2021/06/20 03:31:54;;;;;;;9.20;3.78;;;21.40;99.90;;;;;;5074118;28;20302;-87
2021/06/20 03:34:23;;;;;;;10.38;2.85;;;20.90;99.90;;;;;;5072941;28;20281;-87
2021/06/20 03:36:50;;;;;;;7.85;2.85;;;20.60;99.90;;;;;;5088708;28;20206;-88
2021/06/20 03:39:18;;;;;;;10.88;4.28;;;20.50;99.90;;;;;;5094006;28;20204;-87
2021/06/20 03:41:47;;;;;;;8.30;4.35;;;20.30;99.90;;;;;;5093158;28;20259;-87
2021/06/20 03:44:14;;;;;;;14.90;4.22;;;20.60;99.90;;;;;;5093835;28;20206;-87
2021/06/20 03:46:41;;;;;;;15.48;4.65;;;20.70;99.90;;;;;;5091948;28;20197;-88
2021/06/20 03:49:08;;;;;;;12.40;4.03;;;20.80;99.90;;;;;;5094026;28;20201;-87
2021/06/20 03:51:36;;;;;;;7.82;3.88;;;20.70;99.90;;;;;;5087006;28;20210;-88
2021/06/20 03:54:03;;;;;;;12.32;3.97;;;20.60;99.90;;;;;;5074046;28;20565;-89
2021/06/20 03:56:31;;;;;;;14.60;5.38;;;20.50;99.90;;;;;;5079994;28;20280;-88
2021/06/20 03:59:00;;;;;;;9.35;3.08;;;20.50;99.90;;;;;;5094931;28;20226;-88
2021/06/20 04:01:27;;;;;;;20.17;4.85;;;20.40;99.90;;;;;;5080561;28;20222;-88
2021/06/20 04:03:58;;;;;;;14.95;4.88;;;20.60;99.90;;;;;;5056726;28;20203;-88
2021/06/20 04:06:25;;;;;;;12.05;5.45;;;20.50;99.90;;;;;;5076648;28;20285;-88
2021/06/20 04:08:52;;;;;;;11.05;4.28;;;20.30;99.90;;;;;;5081963;28;20667;-87
2021/06/20 04:11:19;;;;;;;9.90;3.72;;;20.20;99.90;;;;;;5055876;28;20215;-86
2021/06/20 04:13:46;;;;;;;7.90;3.88;;;20.30;99.90;;;;;;5073495;28;20201;-87
2021/06/20 04:16:15;;;;;;;10.57;3.95;;;20.50;99.90;;;;;;5073746;28;20221;-86
2021/06/20 04:22:11;;;;;;;7.10;3.55;;;20.90;99.90;;;;;;5086515;28;20577;-86
2021/06/20 04:24:38;;;;;;;8.77;2.95;;;21.00;99.90;;;;;;5076510;28;20676;-86
2021/06/20 04:27:05;;;;;;;9.98;3.92;;;21.10;99.90;;;;;;5095233;28;20198;-86
2021/06/20 04:29:32;;;;;;;9.43;4.13;;;21.10;99.90;;;;;;5078639;28;20225;-86
2021/06/20 04:32:00;;;;;;;9.00;3.60;;;20.90;99.90;;;;;;5074067;28;20218;-86
2021/06/20 04:34:27;;;;;;;7.85;3.47;;;20.90;99.90;;;;;;5075050;28;20198;-86
2021/06/20 04:36:54;;;;;;;7.35;3.30;;;21.00;99.90;;;;;;5094168;28;20256;-86
2021/06/20 04:39:22;;;;;;;8.20;3.65;;;21.20;99.90;;;;;;5082560;28;20221;-86
2021/06/20 04:41:50;;;;;;;6.93;3.33;;;21.20;99.90;;;;;;5072747;28;20219;-87
2021/06/20 04:46:59;;;;;;;9.88;3.53;;;21.10;99.90;;;;;;5060659;28;20207;-86
2021/06/20 04:49:26;;;;;;;11.68;4.32;;;21.10;99.90;;;;;;5077584;28;20198;-86
2021/06/20 04:51:54;;;;;;;9.77;3.72;;;21.20;99.90;;;;;;5091002;28;20230;-86
2021/06/20 04:54:22;;;;;;;8.90;3.65;;;21.10;99.90;;;;;;5073499;28;20195;-86
2021/06/20 04:56:49;;;;;;;11.35;4.50;;;21.10;99.90;;;;;;5074139;28;20206;-86
2021/06/20 04:59:16;;;;;;;11.93;4.32;;;21.10;99.90;;;;;;5075276;28;20222;-86
2021/06/20 05:01:43;;;;;;;10.82;4.47;;;21.20;99.90;;;;;;5089195;28;20217;-85
2021/06/20 05:04:12;;;;;;;14.38;3.95;;;21.20;99.90;;;;;;5095822;28;20814;-85
2021/06/20 05:06:39;;;;;;;9.57;4.57;;;21.20;99.90;;;;;;5079087;28;20203;-85
2021/06/20 05:09:06;;;;;;;16.17;5.03;;;21.00;99.90;;;;;;5075392;28;20610;-85
2021/06/20 05:11:33;;;;;;;19.27;5.53;;;21.00;99.90;;;;;;5080658;28;20280;-85
2021/06/20 05:14:00;;;;;;;10.25;3.78;;;21.10;99.90;;;;;;5079690;28;20199;-85
2021/06/20 05:16:28;;;;;;;11.75;4.40;;;21.00;99.90;;;;;;5078486;28;20266;-85
2021/06/20 05:18:55;;;;;;;18.17;4.32;;;20.90;99.90;;;;;;5099518;28;20715;-83
2021/06/20 05:21:23;;;;;;;10.05;3.92;;;20.90;99.90;;;;;;5099289;28;20222;-83
2021/06/20 05:23:50;;;;;;;11.73;5.13;;;20.80;99.90;;;;;;5080634;28;20618;-83
2021/06/20 05:26:17;;;;;;;10.40;4.68;;;20.80;99.90;;;;;;5080380;28;20199;-83
2021/06/20 05:28:45;;;;;;;16.85;4.63;;;20.70;99.90;;;;;;5092462;28;20191;-82
2021/06/20 05:31:13;;;;;;;13.70;5.13;;;20.70;99.90;;;;;;5079713;28;20567;-82
2021/06/20 05:33:40;;;;;;;14.50;4.82;;;20.90;99.90;;;;;;5080797;28;20195;-82
2021/06/20 05:36:07;;;;;;;19.30;4.03;;;21.00;99.90;;;;;;5080286;28;20222;-83
2021/06/20 05:38:35;;;;;;;12.85;4.65;;;21.00;99.90;;;;;;5079457;28;20223;-82
2021/06/20 05:41:02;;;;;;;14.77;4.13;;;21.00;99.90;;;;;;5091953;28;20226;-83
2021/06/20 05:43:29;;;;;;;16.65;4.45;;;21.00;99.90;;;;;;5081716;28;20203;-83
2021/06/20 05:45:56;;;;;;;10.77;4.15;;;21.10;99.90;;;;;;5063019;28;20237;-83
2021/06/20 05:48:24;;;;;;;11.48;4.45;;;21.00;99.90;;;;;;5080403;28;20221;-82
2021/06/20 05:50:51;;;;;;;15.25;5.22;;;20.90;99.90;;;;;;5081120;28;20225;-82
2021/06/20 05:53:18;;;;;;;10.65;3.80;;;20.90;99.90;;;;;;5081658;28;20207;-82
2021/06/20 05:55:46;;;;;;;6.50;4.00;;;20.90;99.90;;;;;;5069614;28;20609;-82
2021/06/20 05:58:13;;;;;;;12.45;4.85;;;21.00;99.90;;;;;;5076970;28;20225;-82
2021/06/20 06:00:41;;;;;;;13.70;5.38;;;21.10;99.90;;;;;;5103392;28;20193;-82
2021/06/20 06:03:08;;;;;;;14.27;4.80;;;21.10;99.90;;;;;;5092049;28;20195;-82
2021/06/20 06:05:35;;;;;;;12.25;4.72;;;21.00;99.90;;;;;;5102585;28;20212;-81
2021/06/20 06:08:02;;;;;;;13.82;4.38;;;20.90;99.90;;;;;;5101035;28;20652;-82
2021/06/20 06:10:30;;;;;;;14.30;5.30;;;20.80;99.90;;;;;;5100751;28;20206;-83
2021/06/20 06:13:00;;;;;;;14.38;4.80;;;21.00;99.90;;;;;;5100223;28;20221;-82
2021/06/20 06:15:28;;;;;;;8.77;3.97;;;20.90;99.90;;;;;;5107213;28;20634;-81
2021/06/20 06:17:55;;;;;;;7.43;4.15;;;21.00;99.90;;;;;;5089420;28;20222;-82
2021/06/20 06:20:23;;;;;;;10.23;4.68;;;21.30;99.90;;;;;;5086381;28;20614;-82
2021/06/20 06:22:51;;;;;;;7.32;5.00;;;21.40;99.90;;;;;;5087877;28;20221;-82
2021/06/20 06:25:18;;;;;;;8.98;4.40;;;21.60;99.90;;;;;;5088192;28;20229;-83
2021/06/20 06:27:46;;;;;;;8.05;3.70;;;21.60;99.90;;;;;;5087678;28;20252;-82
2021/06/20 06:30:16;;;;;;;11.88;3.92;;;21.60;99.90;;;;;;5105827;28;20578;-82
2021/06/20 06:32:48;;;;;;;8.50;4.20;;;21.70;99.90;;;;;;5106347;28;20233;-82
2021/06/20 06:35:16;;;;;;;10.98;4.03;;;21.90;99.90;;;;;;5107711;28;20721;-83
2021/06/20 06:37:44;;;;;;;8.00;3.45;;;22.00;99.90;;;;;;5102579;28;20203;-83
2021/06/20 06:40:12;;;;;;;9.57;3.78;;;22.10;99.90;;;;;;5087491;28;20190;-83
2021/06/20 06:42:40;;;;;;;12.95;4.25;;;22.30;99.90;;;;;;5087034;28;20643;-84
2021/06/20 06:45:08;;;;;;;10.10;4.47;;;22.40;99.90;;;;;;5087816;28;20542;-82
2021/06/20 06:47:36;;;;;;;6.68;3.72;;;22.40;99.90;;;;;;5087433;28;20576;-84
2021/06/20 06:50:04;;;;;;;13.52;3.80;;;22.40;99.90;;;;;;5087512;28;20270;-84
2021/06/20 06:52:31;;;;;;;8.57;4.25;;;22.60;99.90;;;;;;5085953;28;20223;-84
2021/06/20 06:54:59;;;;;;;9.38;4.50;;;22.70;99.90;;;;;;5090993;28;20292;-84
2021/06/20 06:57:27;;;;;;;14.18;4.95;;;22.90;99.90;;;;;;5106553;28;20228;-84
2021/06/20 06:59:55;;;;;;;8.55;4.35;;;23.00;99.90;;;;;;5101246;28;20630;-84
2021/06/20 07:02:23;;;;;;;6.57;3.58;;;23.10;99.90;;;;;;5087782;28;20233;-83
2021/06/20 07:04:52;;;;;;;9.35;3.58;;;23.00;99.90;;;;;;5087499;28;20198;-84
2021/06/20 07:07:19;;;;;;;6.80;3.45;;;22.80;99.90;;;;;;5104090;28;20198;-83
2021/06/20 07:09:46;;;;;;;10.40;3.80;;;22.80;99.90;;;;;;5108869;28;20257;-85
2021/06/20 07:12:13;;;;;;;5.63;3.97;;;22.90;99.90;;;;;;5107329;28;20222;-82
2021/06/20 07:14:40;;;;;;;12.50;4.35;;;23.00;99.90;;;;;;5108270;28;20198;-83
2021/06/20 07:17:09;;;;;;;6.15;3.83;;;23.00;99.90;;;;;;5106029;28;20218;-83
2021/06/20 07:19:38;;;;;;;6.90;3.88;;;23.00;99.90;;;;;;5089515;28;20222;-83
2021/06/20 07:22:07;;;;;;;7.30;3.47;;;23.10;99.90;;;;;;5097789;28;20206;-83
2021/06/20 07:24:34;;;;;;;4.63;3.53;;;22.80;99.90;;;;;;5115353;28;20566;-84
2021/06/20 07:27:01;;;;;;;6.88;3.67;;;22.90;99.90;;;;;;5091460;28;20205;-82
2021/06/20 07:29:29;;;;;;;6.45;3.60;;;22.90;99.90;;;;;;5091636;28;20251;-82
2021/06/20 07:31:56;;;;;;;8.38;4.10;;;23.10;99.90;;;;;;5089714;28;20872;-84
2021/06/20 07:34:24;;;;;;;8.75;3.78;;;23.30;99.90;;;;;;5102018;28;20198;-82
2021/06/20 07:36:51;;;;;;;8.85;4.60;;;23.10;99.90;;;;;;5109552;28;20220;-83
2021/06/20 07:39:20;;;;;;;12.07;4.93;;;23.10;99.90;;;;;;5088331;28;20230;-83
2021/06/20 07:41:47;;;;;;;4.72;3.92;;;23.20;99.90;;;;;;5089119;28;20245;-82
2021/06/20 07:44:14;;;;;;;7.47;4.40;;;23.20;99.90;;;;;;5073635;28;20258;-84
2021/06/20 07:46:41;;;;;;;6.22;3.75;;;23.40;99.90;;;;;;5108963;28;20201;-82
2021/06/20 07:49:08;;;;;;;6.60;4.45;;;23.40;99.90;;;;;;5110023;28;20221;-88
2021/06/20 07:51:35;;;;;;;15.20;4.32;;;23.50;99.90;;;;;;5096953;28;20412;-86
2021/06/20 07:54:02;;;;;;;6.50;3.72;;;23.50;99.90;;;;;;5096617;28;20651;-87
2021/06/20 07:56:31;;;;;;;5.35;4.32;;;23.60;99.90;;;;;;5112796;28;20198;-87
2021/06/20 07:58:58;;;;;;;8.40;3.60;;;23.80;99.90;;;;;;5091479;28;20202;-85
2021/06/20 08:01:25;;;;;;;6.65;4.50;;;23.90;99.90;;;;;;5095011;28;20252;-85
2021/06/20 08:03:52;;;;;;;5.75;3.58;;;23.70;99.90;;;;;;5095661;28;20225;-85
2021/06/20 08:06:19;;;;;;;9.57;3.83;;;23.80;99.90;;;;;;5097218;28;20184;-85
2021/06/20 08:08:48;;;;;;;8.07;4.38;;;23.80;99.90;;;;;;5096736;28;20199;-84
2021/06/20 08:11:15;;;;;;;7.20;4.28;;;23.90;99.90;;;;;;5096363;28;20225;-85
2021/06/20 08:13:43;;;;;;;8.48;4.15;;;24.10;99.90;;;;;;5096959;28;20193;-83
2021/06/20 08:16:10;;;;;;;7.18;4.25;;;24.10;99.90;;;;;;5115186;28;20174;-86
2021/06/20 08:18:37;;;;;;;6.03;3.25;;;24.40;99.90;;;;;;5111788;28;20214;-86
2021/06/20 08:21:05;;;;;;;4.03;3.25;;;24.50;99.90;;;;;;5079709;28;20210;-85
2021/06/20 08:23:32;;;;;;;8.82;4.07;;;24.50;99.90;;;;;;5111637;28;20194;-85
2021/06/20 08:25:59;;;;;;;8.85;3.10;;;24.30;99.90;;;;;;5099882;28;20209;-84
2021/06/20 08:28:26;;;;;;;7.15;3.95;;;24.20;99.90;;;;;;5097677;28;20209;-85
2021/06/20 08:30:55;;;;;;;4.80;2.95;;;24.30;99.90;;;;;;5101560;28;20193;-85
2021/06/20 08:33:22;;;;;;;4.03;2.95;;;24.50;99.90;;;;;;5116555;28;20190;-85
2021/06/20 08:35:49;;;;;;;10.15;3.85;;;24.90;99.90;;;;;;5116081;28;20194;-82
2021/06/20 08:38:16;;;;;;;5.07;3.65;;;24.60;99.90;;;;;;5109790;28;20179;-86
2021/06/20 08:40:43;;;;;;;10.35;4.05;;;24.50;99.90;;;;;;5098221;28;20187;-84
2021/06/20 08:43:10;;;;;;;4.72;3.08;;;24.40;99.90;;;;;;5090681;28;20248;-85
2021/06/20 08:45:38;;;;;;;5.75;3.67;;;24.60;99.90;;;;;;5076879;28;20672;-86
2021/06/20 08:48:09;;;;;;;6.10;3.83;;;24.90;99.90;;;;;;5099811;28;20201;-86
2021/06/20 08:50:36;;;;;;;3.42;3.00;;;25.00;99.90;;;;;;5097000;28;20338;-86
2021/06/20 08:53:03;;;;;;;6.53;3.28;;;25.40;99.90;;;;;;5102394;28;20210;-86
2021/06/20 08:55:30;;;;;;;5.70;3.10;;;25.70;99.90;;;;;;5086461;28;20198;-84
2021/06/20 08:58:20;;;;;;;6.15;3.75;;;25.60;99.90;;;;;;5082382;28;20549;-84
2021/06/20 09:00:48;;;;;;;6.10;3.08;;;25.70;99.90;;;;;;5080913;28;20206;-84
2021/06/20 09:03:17;;;;;;;3.80;3.00;;;25.70;99.90;;;;;;5084941;28;20206;-86
2021/06/20 09:05:58;;;;;;;4.97;4.10;;;25.40;99.90;;;;;;5084887;28;20191;-86
2021/06/20 09:08:25;;;;;;;6.55;3.53;;;25.30;99.90;;;;;;5085942;28;20195;-84
2021/06/20 09:10:54;;;;;;;4.53;3.17;;;25.30;99.90;;;;;;5087242;28;20190;-86
2021/06/20 09:13:22;;;;;;;4.40;2.75;;;25.20;99.90;;;;;;5071684;28;20282;-83
2021/06/20 09:16:03;;;;;;;4.40;3.00;;;25.20;99.90;;;;;;5087458;28;20592;-84
2021/06/20 09:18:31;;;;;;;6.00;2.83;;;25.00;99.90;;;;;;5084608;28;20196;-85
2021/06/20 09:20:58;;;;;;;4.55;2.70;;;25.20;99.90;;;;;;5087974;28;20193;-84
2021/06/20 09:23:28;;;;;;;4.63;2.85;;;25.30;99.90;;;;;;5088040;28;20206;-82
2021/06/20 09:25:59;;;;;;;3.22;2.40;;;25.40;99.90;;;;;;5088545;28;20191;-84
2021/06/20 09:28:35;;;;;;;6.88;3.90;;;25.30;99.90;;;;;;5088748;28;20201;-84
2021/06/20 09:31:05;;;;;;;6.38;3.05;;;25.40;99.90;;;;;;5088534;28;20268;-85
2021/06/20 09:33:35;;;;;;;3.00;2.75;;;25.50;99.90;;;;;;5086478;28;20198;-83
2021/06/20 09:36:07;;;;;;;4.30;3.22;;;25.50;99.90;;;;;;5086137;28;20195;-84
2021/06/20 09:38:41;;;;;;;2.70;2.50;;;25.70;99.90;;;;;;5094038;28;20194;-84
2021/06/20 09:41:11;;;;;;;4.45;2.78;;;25.90;99.90;;;;;;5084907;28;20234;-83
2021/06/20 09:43:50;;;;;;;6.03;3.35;;;26.00;99.90;;;;;;5087255;28;20546;-82
2021/06/20 09:46:17;;;;;;;3.70;2.40;;;26.00;99.90;;;;;;5095230;28;20601;-83
2021/06/20 09:48:46;;;;;;;5.40;3.13;;;26.40;99.90;;;;;;5093014;28;20225;-85
2021/06/20 09:51:18;;;;;;;4.88;2.60;;;26.00;99.90;;;;;;5092792;28;20639;-82
2021/06/20 09:53:51;;;;;;;2.58;2.35;;;26.00;99.90;;;;;;5093824;28;20198;-85
2021/06/20 09:56:21;;;;;;;3.95;2.60;;;25.60;99.90;;;;;;5082372;28;20210;-84
2021/06/20 09:58:57;;;;;;;3.05;2.50;;;25.30;99.90;;;;;;5085064;28;20186;-84
2021/06/20 10:01:26;;;;;;;5.75;3.05;;;25.40;99.90;;;;;;5074743;28;20708;-88
2021/06/20 10:03:56;;;;;;;4.47;3.30;;;25.40;99.90;;;;;;5089303;28;20210;-84
2021/06/20 10:06:23;;;;;;;2.65;2.35;;;25.60;99.90;;;;;;5093200;28;20212;-82
2021/06/20 10:08:51;;;;;;;4.28;3.33;;;25.80;99.90;;;;;;5087369;28;20679;-85
2021/06/20 10:11:21;;;;;;;4.95;3.58;;;25.80;99.90;;;;;;5087880;28;20483;-85
2021/06/20 10:13:50;;;;;;;5.38;3.53;;;26.00;99.90;;;;;;5083393;28;20198;-82
2021/06/20 10:16:29;;;;;;;7.75;3.60;;;26.50;99.90;;;;;;5092050;28;20198;-83
2021/06/20 10:19:01;;;;;;;9.20;2.85;;;26.60;99.90;;;;;;5089577;28;20195;-81
2021/06/20 10:21:44;;;;;;;3.80;2.97;;;26.80;99.90;;;;;;5089941;28;20221;-81
2021/06/20 10:24:17;;;;;;;8.65;3.38;;;26.90;99.90;;;;;;5089224;28;20285;-81
2021/06/20 10:27:30;;;;;;;3.30;3.00;;;26.90;99.90;;;;;;5094882;28;20205;-79
2021/06/20 10:33:31;;;;;;;12.15;3.42;;;27.00;99.90;;;;;;5028227;28;20223;-82
2021/06/20 10:36:03;;;;;;;7.35;3.75;;;26.90;99.90;;;;;;5041610;28;20199;-80
2021/06/20 10:45:32;;;;;;;3.80;3.47;;;26.60;99.90;;;;;;5042787;28;20715;-82
2021/06/20 10:48:13;;;;;;;3.97;3.65;;;26.30;99.90;;;;;;5009805;28;20199;-83
2021/06/20 10:50:43;;;;;;;6.20;3.65;;;26.30;99.90;;;;;;5048310;28;20258;-84
2021/06/20 10:53:12;;;;;;;3.30;2.83;;;26.40;99.90;;;;;;5030505;28;20247;-84
2021/06/20 10:55:43;;;;;;;5.28;3.15;;;27.10;99.90;;;;;;5046928;28;20744;-85
2021/06/20 10:58:20;;;;;;;8.30;3.20;;;27.70;99.90;;;;;;5045745;28;20675;-83
2021/06/20 11:00:47;;;;;;;3.75;3.30;;;27.30;99.90;;;;;;5040115;28;20220;-84
2021/06/20 11:03:22;;;;;;;4.30;2.72;;;27.50;99.90;;;;;;5027609;28;20202;-84
2021/06/20 11:05:50;;;;;;;7.38;3.05;;;27.70;99.90;;;;;;5038826;28;20202;-84
2021/06/20 11:08:34;;;;;;;3.63;2.47;;;26.90;99.90;;;;;;5049886;28;20603;-85
2021/06/20 11:11:21;;;;;;;1.85;1.55;;;27.00;99.90;;;;;;5026969;28;20212;-87
2021/06/20 11:14:00;;;;;;;3.08;2.05;;;27.40;99.90;;;;;;5043765;28;20242;-82
2021/06/20 11:16:30;;;;;;;3.53;2.47;;;27.50;99.90;;;;;;5023383;28;20250;-88
2021/06/20 11:19:10;;;;;;;4.18;2.10;;;27.20;99.90;;;;;;5025254;28;20196;-86
2021/06/20 11:21:40;;;;;;;4.82;2.13;;;27.40;99.90;;;;;;5028232;28;20247;-84
2021/06/20 11:24:11;;;;;;;3.95;2.17;;;27.60;99.90;;;;;;5027225;28;20621;-87
2021/06/20 11:26:38;;;;;;;5.97;2.50;;;27.60;99.90;;;;;;5026748;28;20570;-86
2021/06/20 11:29:07;;;;;;;1.77;1.67;;;27.30;99.90;;;;;;5027577;28;20231;-84
2021/06/20 11:31:45;;;;;;;2.80;2.20;;;27.50;99.90;;;;;;5044486;28;20232;-83
2021/06/20 11:34:12;;;;;;;3.80;1.88;;;27.60;99.90;;;;;;5044784;28;20265;-84
2021/06/20 11:36:39;;;;;;;4.57;1.60;;;27.50;99.90;;;;;;5025239;28;20258;-88
2021/06/20 11:39:09;;;;;;;2.72;2.53;;;27.50;99.90;;;;;;5041797;28;20192;-83
2021/06/20 11:41:42;;;;;;;3.40;2.10;;;27.50;99.90;;;;;;5025997;28;20226;-84
2021/06/20 11:44:09;;;;;;;3.78;2.63;;;27.80;99.90;;;;;;5027513;28;20629;-85
2021/06/20 11:46:37;;;;;;;2.13;1.92;;;27.50;99.90;;;;;;5043482;28;20234;-84
2021/06/20 11:49:06;;;;;;;1.50;1.40;;;27.60;99.90;;;;;;5011293;28;20234;-85
2021/06/20 11:51:36;;;;;;;2.35;1.90;;;27.80;99.90;;;;;;5026842;28;20231;-84
2021/06/20 11:54:11;;;;;;;2.72;1.75;;;28.40;99.90;;;;;;5044981;28;20204;-84
2021/06/20 11:56:39;;;;;;;3.75;1.83;;;28.00;99.90;;;;;;5041693;28;20196;-82
2021/06/20 11:59:07;;;;;;;2.88;1.90;;;28.20;99.90;;;;;;5041588;28;20200;-83
2021/06/20 12:01:48;;;;;;;1.88;1.50;;;28.20;99.90;;;;;;5040708;28;20291;-84
2021/06/20 12:04:21;;;;;;;1.95;1.73;;;28.20;99.90;;;;;;5036805;28;20202;-83
2021/06/20 12:06:49;;;;;;;4.55;1.77;;;27.90;99.90;;;;;;5050068;28;20223;-84
2021/06/20 12:09:18;;;;;;;4.97;1.45;;;27.40;99.90;;;;;;5025962;28;20203;-83
2021/06/20 12:11:45;;;;;;;3.35;1.63;;;27.60;99.90;;;;;;5043009;28;20223;-85
2021/06/20 12:14:23;;;;;;;2.38;1.42;;;27.60;99.90;;;;;;5044923;28;20203;-85
2021/06/20 12:16:51;;;;;;;1.70;1.60;;;27.60;99.90;;;;;;5024467;28;20227;-87
2021/06/20 12:19:21;;;;;;;7.30;1.85;;;28.10;99.90;;;;;;5020936;28;20239;-84
2021/06/20 12:21:49;;;;;;;4.82;1.63;;;28.10;99.90;;;;;;5043337;28;20250;-82
2021/06/20 12:28:31;;;;;;;2.55;1.70;;;28.90;99.90;;;;;;5046242;28;20191;-85
2021/06/20 12:31:48;;;;;;;1.80;1.70;;;29.00;99.90;;;;;;5048129;28;20239;-86
2021/06/20 12:34:16;;;;;;;3.65;2.03;;;28.90;99.90;;;;;;5043071;28;20223;-84
2021/06/20 12:36:43;;;;;;;2.45;1.38;;;28.90;99.90;;;;;;5032625;28;20212;-86
2021/06/20 12:39:09;;;;;;;2.88;1.60;;;29.00;99.90;;;;;;5031062;28;20196;-87
2021/06/20 12:41:37;;;;;;;7.43;1.35;;;28.70;99.90;;;;;;5029620;28;20228;-86
2021/06/20 12:44:07;;;;;;;3.03;1.42;;;28.50;99.90;;;;;;5027802;28;20211;-85
2021/06/20 12:46:36;;;;;;;3.50;1.50;;;28.30;99.90;;;;;;5027482;28;20224;-84
2021/06/20 12:49:08;;;;;;;5.45;2.08;;;28.50;99.90;;;;;;5043595;28;20222;-84
2021/06/20 12:51:37;;;;;;;1.95;1.80;;;28.90;99.90;;;;;;5044119;28;20208;-86
2021/06/20 12:54:06;;;;;;;1.67;1.30;;;29.20;99.90;;;;;;5045186;28;20216;-85
2021/06/20 12:56:34;;;;;;;2.85;1.88;;;28.90;99.90;;;;;;5040204;28;20225;-86
2021/06/20 12:59:03;;;;;;;3.25;1.73;;;29.00;99.90;;;;;;5025212;28;20196;-85
2021/06/20 13:01:35;;;;;;;3.72;1.95;;;29.10;99.90;;;;;;5026488;28;20251;-86
2021/06/20 13:04:13;;;;;;;2.83;1.90;;;29.60;99.90;;;;;;5044695;28;20203;-85
2021/06/20 13:06:40;;;;;;;2.53;1.65;;;29.60;99.90;;;;;;5026053;28;20226;-82
2021/06/20 13:09:08;;;;;;;3.45;1.42;;;29.60;99.90;;;;;;5048656;28;20226;-82
2021/06/20 13:11:37;;;;;;;3.05;1.50;;;29.70;99.90;;;;;;5027321;28;20208;-80
2021/06/20 13:14:12;;;;;;;2.20;1.30;;;29.70;99.90;;;;;;5047252;28;20203;-83
2021/06/20 13:16:41;;;;;;;7.85;1.92;;;29.20;99.90;;;;;;5030037;28;20235;-82